sensor_id;sensor_type;location;lat;lon;timestamp;temperature;humidity
48515;DHT22;34309;47.260;2.796;2022-09-13T00:00:32;23.80;36.80
48515;DHT22;34309;47.260;2.796;2022-09-13T00:02:58;23.80;36.60
48515;DHT22;34309;47.260;2.796;2022-09-13T00:05:24;23.80;36.80
48515;DHT22;34309;47.260;2.796;2022-09-13T00:07:49;23.80;37.50
48515;DHT22;34309;47.260;2.796;2022-09-13T00:10:15;23.80;36.80
48515;DHT22;34309;47.260;2.796;2022-09-13T00:12:42;23.80;36.80
48515;DHT22;34309;47.260;2.796;2022-09-13T00:15:08;23.80;36.80
48515;DHT22;34309;47.260;2.796;2022-09-13T00:17:34;23.80;36.80
48515;DHT22;34309;47.260;2.796;2022-09-13T00:19:59;23.80;36.90
48515;DHT22;34309;47.260;2.796;2022-09-13T00:22:26;23.80;36.90
48515;DHT22;34309;47.260;2.796;2022-09-13T00:24:52;23.80;36.70
48515;DHT22;34309;47.260;2.796;2022-09-13T00:27:18;23.80;36.80
48515;DHT22;34309;47.260;2.796;2022-09-13T00:29:43;23.80;36.90
48515;DHT22;34309;47.260;2.796;2022-09-13T00:32:09;23.80;36.90
48515;DHT22;34309;47.260;2.796;2022-09-13T00:34:35;23.80;36.90
48515;DHT22;34309;47.260;2.796;2022-09-13T00:37:00;23.80;36.80
48515;DHT22;34309;47.260;2.796;2022-09-13T00:39:26;23.80;36.80
48515;DHT22;34309;47.260;2.796;2022-09-13T00:41:52;23.80;36.70
48515;DHT22;34309;47.260;2.796;2022-09-13T00:45:20;23.80;36.80
48515;DHT22;34309;47.260;2.796;2022-09-13T00:47:37;23.80;36.80
48515;DHT22;34309;47.260;2.796;2022-09-13T00:52:43;23.80;36.70
48515;DHT22;34309;47.260;2.796;2022-09-13T00:58:01;23.80;36.70
48515;DHT22;34309;47.260;2.796;2022-09-13T01:00:29;23.80;37.00
48515;DHT22;34309;47.260;2.796;2022-09-13T01:02:59;23.80;36.90
48515;DHT22;34309;47.260;2.796;2022-09-13T01:05:29;23.80;36.80
48515;DHT22;34309;47.260;2.796;2022-09-13T01:07:56;23.80;37.00
48515;DHT22;34309;47.260;2.796;2022-09-13T01:10:24;23.80;36.90
48515;DHT22;34309;47.260;2.796;2022-09-13T01:13:17;23.80;36.80
48515;DHT22;34309;47.260;2.796;2022-09-13T01:15:43;23.80;36.90
48515;DHT22;34309;47.260;2.796;2022-09-13T01:18:10;23.80;36.80
48515;DHT22;34309;47.260;2.796;2022-09-13T01:29:43;23.80;36.80
48515;DHT22;34309;47.260;2.796;2022-09-13T01:43:22;23.80;36.80
48515;DHT22;34309;47.260;2.796;2022-09-13T01:51:38;23.80;36.90
48515;DHT22;34309;47.260;2.796;2022-09-13T01:54:20;23.80;36.90
48515;DHT22;34309;47.260;2.796;2022-09-13T01:57:20;23.80;36.70
48515;DHT22;34309;47.260;2.796;2022-09-13T02:00:06;23.80;36.90
48515;DHT22;34309;47.260;2.796;2022-09-13T02:05:32;23.80;36.70
48515;DHT22;34309;47.260;2.796;2022-09-13T02:08:31;23.80;36.80
48515;DHT22;34309;47.260;2.796;2022-09-13T02:11:07;23.80;36.70
48515;DHT22;34309;47.260;2.796;2022-09-13T02:14:04;23.80;36.70
48515;DHT22;34309;47.260;2.796;2022-09-13T02:16:40;23.80;36.90
48515;DHT22;34309;47.260;2.796;2022-09-13T02:19:14;23.80;36.70
48515;DHT22;34309;47.260;2.796;2022-09-13T02:21:45;23.80;36.70
48515;DHT22;34309;47.260;2.796;2022-09-13T02:24:25;23.70;36.80
48515;DHT22;34309;47.260;2.796;2022-09-13T02:26:54;23.70;36.70
48515;DHT22;34309;47.260;2.796;2022-09-13T02:29:24;23.70;36.60
48515;DHT22;34309;47.260;2.796;2022-09-13T02:32:05;23.70;36.60
48515;DHT22;34309;47.260;2.796;2022-09-13T02:34:38;23.70;36.70
48515;DHT22;34309;47.260;2.796;2022-09-13T02:37:07;23.70;36.80
48515;DHT22;34309;47.260;2.796;2022-09-13T02:39:36;23.70;37.60
48515;DHT22;34309;47.260;2.796;2022-09-13T02:42:29;23.70;36.80
48515;DHT22;34309;47.260;2.796;2022-09-13T02:44:56;23.70;36.60
48515;DHT22;34309;47.260;2.796;2022-09-13T02:47:52;23.70;36.60
48515;DHT22;34309;47.260;2.796;2022-09-13T02:53:28;23.70;36.50
48515;DHT22;34309;47.260;2.796;2022-09-13T02:59:08;23.70;36.60
48515;DHT22;34309;47.260;2.796;2022-09-13T03:01:37;23.70;37.20
48515;DHT22;34309;47.260;2.796;2022-09-13T03:04:04;23.80;36.50
48515;DHT22;34309;47.260;2.796;2022-09-13T03:06:30;23.70;36.40
48515;DHT22;34309;47.260;2.796;2022-09-13T03:08:58;23.70;36.50
48515;DHT22;34309;47.260;2.796;2022-09-13T03:11:55;23.70;36.30
48515;DHT22;34309;47.260;2.796;2022-09-13T03:17:29;23.70;36.30
48515;DHT22;34309;47.260;2.796;2022-09-13T03:20:09;23.70;36.30
48515;DHT22;34309;47.260;2.796;2022-09-13T03:25:37;23.70;36.20
48515;DHT22;34309;47.260;2.796;2022-09-13T03:30:47;23.70;36.40
48515;DHT22;34309;47.260;2.796;2022-09-13T03:33:27;23.70;36.40
48515;DHT22;34309;47.260;2.796;2022-09-13T03:38:48;23.70;36.30
48515;DHT22;34309;47.260;2.796;2022-09-13T03:41:21;23.70;36.30
48515;DHT22;34309;47.260;2.796;2022-09-13T03:43:54;23.70;36.40
48515;DHT22;34309;47.260;2.796;2022-09-13T03:46:42;23.70;36.20
48515;DHT22;34309;47.260;2.796;2022-09-13T03:49:19;23.70;36.30
48515;DHT22;34309;47.260;2.796;2022-09-13T03:51:48;23.70;36.50
48515;DHT22;34309;47.260;2.796;2022-09-13T03:54:29;23.70;36.40
48515;DHT22;34309;47.260;2.796;2022-09-13T03:57:19;23.70;36.40
48515;DHT22;34309;47.260;2.796;2022-09-13T03:59:51;23.70;36.30
48515;DHT22;34309;47.260;2.796;2022-09-13T04:02:19;23.70;36.30
48515;DHT22;34309;47.260;2.796;2022-09-13T04:04:46;23.70;36.40
48515;DHT22;34309;47.260;2.796;2022-09-13T04:07:17;23.70;36.40
48515;DHT22;34309;47.260;2.796;2022-09-13T04:09:43;23.70;36.30
48515;DHT22;34309;47.260;2.796;2022-09-13T04:12:10;23.70;36.20
48515;DHT22;34309;47.260;2.796;2022-09-13T04:14:36;23.70;36.40
48515;DHT22;34309;47.260;2.796;2022-09-13T04:17:02;23.70;36.30
48515;DHT22;34309;47.260;2.796;2022-09-13T04:19:28;23.70;36.20
48515;DHT22;34309;47.260;2.796;2022-09-13T04:21:54;23.70;36.30
48515;DHT22;34309;47.260;2.796;2022-09-13T04:24:24;23.70;36.30
48515;DHT22;34309;47.260;2.796;2022-09-13T04:26:51;23.70;36.20
48515;DHT22;34309;47.260;2.796;2022-09-13T04:29:18;23.70;36.30
48515;DHT22;34309;47.260;2.796;2022-09-13T04:31:44;23.70;36.20
48515;DHT22;34309;47.260;2.796;2022-09-13T04:34:10;23.70;36.20
48515;DHT22;34309;47.260;2.796;2022-09-13T04:36:36;23.70;36.30
48515;DHT22;34309;47.260;2.796;2022-09-13T04:39:04;23.70;36.20
48515;DHT22;34309;47.260;2.796;2022-09-13T04:41:30;23.70;36.20
48515;DHT22;34309;47.260;2.796;2022-09-13T04:43:58;23.70;36.30
48515;DHT22;34309;47.260;2.796;2022-09-13T04:46:23;23.70;36.40
48515;DHT22;34309;47.260;2.796;2022-09-13T04:48:50;23.70;36.50
48515;DHT22;34309;47.260;2.796;2022-09-13T04:51:16;23.70;36.30
48515;DHT22;34309;47.260;2.796;2022-09-13T04:53:44;23.70;36.30
48515;DHT22;34309;47.260;2.796;2022-09-13T04:56:10;23.70;36.40
48515;DHT22;34309;47.260;2.796;2022-09-13T04:58:38;23.70;36.40
48515;DHT22;34309;47.260;2.796;2022-09-13T05:01:06;23.70;36.50
48515;DHT22;34309;47.260;2.796;2022-09-13T05:03:34;23.70;36.40
48515;DHT22;34309;47.260;2.796;2022-09-13T05:06:08;23.70;36.40
48515;DHT22;34309;47.260;2.796;2022-09-13T05:08:35;23.70;36.30
48515;DHT22;34309;47.260;2.796;2022-09-13T05:11:01;23.70;36.60
48515;DHT22;34309;47.260;2.796;2022-09-13T05:13:28;23.70;36.40
48515;DHT22;34309;47.260;2.796;2022-09-13T05:15:55;23.70;36.60
48515;DHT22;34309;47.260;2.796;2022-09-13T05:18:22;23.70;36.60
48515;DHT22;34309;47.260;2.796;2022-09-13T05:20:53;23.60;36.60
48515;DHT22;34309;47.260;2.796;2022-09-13T05:23:20;23.70;36.50
48515;DHT22;34309;47.260;2.796;2022-09-13T05:25:54;23.70;36.50
48515;DHT22;34309;47.260;2.796;2022-09-13T05:28:21;23.70;36.40
48515;DHT22;34309;47.260;2.796;2022-09-13T05:31:26;23.60;36.40
48515;DHT22;34309;47.260;2.796;2022-09-13T05:33:56;23.60;36.50
48515;DHT22;34309;47.260;2.796;2022-09-13T05:36:23;23.60;36.20
48515;DHT22;34309;47.260;2.796;2022-09-13T05:38:50;23.60;36.40
48515;DHT22;34309;47.260;2.796;2022-09-13T05:41:16;23.60;36.20
48515;DHT22;34309;47.260;2.796;2022-09-13T05:43:42;23.60;36.20
48515;DHT22;34309;47.260;2.796;2022-09-13T05:46:12;23.60;36.20
48515;DHT22;34309;47.260;2.796;2022-09-13T05:48:39;23.60;36.20
48515;DHT22;34309;47.260;2.796;2022-09-13T05:51:06;23.60;36.30
48515;DHT22;34309;47.260;2.796;2022-09-13T05:53:38;23.60;36.30
48515;DHT22;34309;47.260;2.796;2022-09-13T05:56:06;23.60;36.20
48515;DHT22;34309;47.260;2.796;2022-09-13T05:58:32;23.60;36.30
48515;DHT22;34309;47.260;2.796;2022-09-13T06:00:59;23.60;36.30
48515;DHT22;34309;47.260;2.796;2022-09-13T06:03:25;23.60;36.30
48515;DHT22;34309;47.260;2.796;2022-09-13T06:05:57;23.60;36.50
48515;DHT22;34309;47.260;2.796;2022-09-13T06:08:27;23.60;36.30
48515;DHT22;34309;47.260;2.796;2022-09-13T06:11:04;23.60;36.30
48515;DHT22;34309;47.260;2.796;2022-09-13T06:13:31;23.60;36.40
48515;DHT22;34309;47.260;2.796;2022-09-13T06:15:59;23.60;36.80
48515;DHT22;34309;47.260;2.796;2022-09-13T06:18:25;23.60;36.90
48515;DHT22;34309;47.260;2.796;2022-09-13T06:20:57;23.60;37.00
48515;DHT22;34309;47.260;2.796;2022-09-13T06:23:25;23.60;36.80
48515;DHT22;34309;47.260;2.796;2022-09-13T06:26:05;23.60;37.00
48515;DHT22;34309;47.260;2.796;2022-09-13T06:28:31;23.60;37.20
48515;DHT22;34309;47.260;2.796;2022-09-13T06:31:11;23.60;37.20
48515;DHT22;34309;47.260;2.796;2022-09-13T06:33:39;23.60;37.20
48515;DHT22;34309;47.260;2.796;2022-09-13T06:36:13;23.60;37.30
48515;DHT22;34309;47.260;2.796;2022-09-13T06:38:40;23.60;37.60
48515;DHT22;34309;47.260;2.796;2022-09-13T06:41:10;23.60;37.50
48515;DHT22;34309;47.260;2.796;2022-09-13T06:43:37;23.60;37.50
48515;DHT22;34309;47.260;2.796;2022-09-13T06:46:22;23.60;37.70
48515;DHT22;34309;47.260;2.796;2022-09-13T06:48:48;23.60;37.60
48515;DHT22;34309;47.260;2.796;2022-09-13T06:51:19;23.60;38.00
48515;DHT22;34309;47.260;2.796;2022-09-13T06:53:46;23.60;37.80
48515;DHT22;34309;47.260;2.796;2022-09-13T06:56:21;23.60;37.70
48515;DHT22;34309;47.260;2.796;2022-09-13T06:58:50;23.60;37.80
48515;DHT22;34309;47.260;2.796;2022-09-13T07:01:33;23.60;37.70
48515;DHT22;34309;47.260;2.796;2022-09-13T07:04:08;23.60;37.60
48515;DHT22;34309;47.260;2.796;2022-09-13T07:06:39;23.60;37.50
48515;DHT22;34309;47.260;2.796;2022-09-13T07:09:08;23.60;37.50
48515;DHT22;34309;47.260;2.796;2022-09-13T07:11:37;23.60;37.60
48515;DHT22;34309;47.260;2.796;2022-09-13T07:14:03;23.60;37.60
48515;DHT22;34309;47.260;2.796;2022-09-13T07:16:32;23.60;37.50
48515;DHT22;34309;47.260;2.796;2022-09-13T07:19:20;23.60;37.50
48515;DHT22;34309;47.260;2.796;2022-09-13T07:21:47;23.60;37.50
48515;DHT22;34309;47.260;2.796;2022-09-13T07:24:18;23.60;37.40
48515;DHT22;34309;47.260;2.796;2022-09-13T07:26:44;23.60;37.50
48515;DHT22;34309;47.260;2.796;2022-09-13T07:29:13;23.60;37.50
48515;DHT22;34309;47.260;2.796;2022-09-13T07:31:45;23.60;37.50
48515;DHT22;34309;47.260;2.796;2022-09-13T07:34:16;23.60;38.20
48515;DHT22;34309;47.260;2.796;2022-09-13T07:36:44;23.60;38.00
48515;DHT22;34309;47.260;2.796;2022-09-13T07:39:13;23.60;37.20
48515;DHT22;34309;47.260;2.796;2022-09-13T07:41:39;23.60;37.50
48515;DHT22;34309;47.260;2.796;2022-09-13T07:44:05;23.60;37.40
48515;DHT22;34309;47.260;2.796;2022-09-13T07:46:35;23.60;37.50
48515;DHT22;34309;47.260;2.796;2022-09-13T07:49:09;23.60;37.30
48515;DHT22;34309;47.260;2.796;2022-09-13T07:51:37;23.60;37.50
48515;DHT22;34309;47.260;2.796;2022-09-13T07:54:06;23.60;37.70
48515;DHT22;34309;47.260;2.796;2022-09-13T07:56:36;23.60;37.40
48515;DHT22;34309;47.260;2.796;2022-09-13T07:59:04;23.60;37.50
48515;DHT22;34309;47.260;2.796;2022-09-13T08:01:44;23.60;37.40
48515;DHT22;34309;47.260;2.796;2022-09-13T08:04:12;23.60;37.40
48515;DHT22;34309;47.260;2.796;2022-09-13T08:06:39;23.60;37.30
48515;DHT22;34309;47.260;2.796;2022-09-13T08:09:06;23.60;37.60
48515;DHT22;34309;47.260;2.796;2022-09-13T08:11:38;23.60;37.40
48515;DHT22;34309;47.260;2.796;2022-09-13T08:14:06;23.60;37.40
48515;DHT22;34309;47.260;2.796;2022-09-13T08:16:32;23.60;37.70
48515;DHT22;34309;47.260;2.796;2022-09-13T08:19:05;23.60;37.40
48515;DHT22;34309;47.260;2.796;2022-09-13T08:21:34;23.60;37.30
48515;DHT22;34309;47.260;2.796;2022-09-13T08:24:00;23.60;37.30
48515;DHT22;34309;47.260;2.796;2022-09-13T08:26:29;23.60;37.10
48515;DHT22;34309;47.260;2.796;2022-09-13T08:28:57;23.60;37.10
48515;DHT22;34309;47.260;2.796;2022-09-13T08:31:24;23.60;37.10
48515;DHT22;34309;47.260;2.796;2022-09-13T08:33:52;23.60;37.00
48515;DHT22;34309;47.260;2.796;2022-09-13T08:36:23;23.60;36.90
48515;DHT22;34309;47.260;2.796;2022-09-13T08:38:54;23.60;37.10
48515;DHT22;34309;47.260;2.796;2022-09-13T08:50:11;23.60;37.20
48515;DHT22;34309;47.260;2.796;2022-09-13T08:53:18;23.60;37.20
48515;DHT22;34309;47.260;2.796;2022-09-13T08:56:00;23.60;37.30
48515;DHT22;34309;47.260;2.796;2022-09-13T09:07:08;23.60;37.20
48515;DHT22;34309;47.260;2.796;2022-09-13T09:09:53;23.70;37.50
48515;DHT22;34309;47.260;2.796;2022-09-13T09:22:02;23.70;37.80
48515;DHT22;34309;47.260;2.796;2022-09-13T09:24:34;23.70;37.70
48515;DHT22;34309;47.260;2.796;2022-09-13T09:27:12;23.70;37.80
48515;DHT22;34309;47.260;2.796;2022-09-13T09:29:39;23.70;37.90
48515;DHT22;34309;47.260;2.796;2022-09-13T09:32:23;23.70;37.90
48515;DHT22;34309;47.260;2.796;2022-09-13T09:38:13;23.70;38.10
48515;DHT22;34309;47.260;2.796;2022-09-13T09:40:43;23.70;38.00
48515;DHT22;34309;47.260;2.796;2022-09-13T09:43:39;23.70;38.30
48515;DHT22;34309;47.260;2.796;2022-09-13T09:46:23;23.70;38.60
48515;DHT22;34309;47.260;2.796;2022-09-13T09:49:03;23.70;38.50
48515;DHT22;34309;47.260;2.796;2022-09-13T09:51:54;23.70;38.50
48515;DHT22;34309;47.260;2.796;2022-09-13T09:54:22;23.70;38.30
48515;DHT22;34309;47.260;2.796;2022-09-13T09:56:54;23.80;38.60
48515;DHT22;34309;47.260;2.796;2022-09-13T09:59:31;23.80;38.40
48515;DHT22;34309;47.260;2.796;2022-09-13T10:02:00;23.80;38.60
48515;DHT22;34309;47.260;2.796;2022-09-13T10:04:30;23.80;38.50
48515;DHT22;34309;47.260;2.796;2022-09-13T10:07:34;23.80;38.60
48515;DHT22;34309;47.260;2.796;2022-09-13T10:10:20;23.80;38.80
48515;DHT22;34309;47.260;2.796;2022-09-13T10:12:51;23.90;38.60
48515;DHT22;34309;47.260;2.796;2022-09-13T10:15:25;23.80;38.70
48515;DHT22;34309;47.260;2.796;2022-09-13T10:20:26;23.80;38.90
48515;DHT22;34309;47.260;2.796;2022-09-13T10:25:44;23.90;39.20
48515;DHT22;34309;47.260;2.796;2022-09-13T10:28:20;23.90;39.20
48515;DHT22;34309;47.260;2.796;2022-09-13T10:30:51;23.90;39.20
48515;DHT22;34309;47.260;2.796;2022-09-13T10:33:31;23.90;39.20
48515;DHT22;34309;47.260;2.796;2022-09-13T10:36:00;23.90;39.20
48515;DHT22;34309;47.260;2.796;2022-09-13T10:38:33;23.90;39.30
48515;DHT22;34309;47.260;2.796;2022-09-13T10:41:03;23.90;39.30
48515;DHT22;34309;47.260;2.796;2022-09-13T10:43:32;23.90;39.20
48515;DHT22;34309;47.260;2.796;2022-09-13T10:45:59;23.90;39.30
48515;DHT22;34309;47.260;2.796;2022-09-13T10:48:47;23.90;39.20
48515;DHT22;34309;47.260;2.796;2022-09-13T10:56:40;23.90;39.10
48515;DHT22;34309;47.260;2.796;2022-09-13T10:59:25;23.90;39.20
48515;DHT22;34309;47.260;2.796;2022-09-13T11:02:21;23.90;39.50
48515;DHT22;34309;47.260;2.796;2022-09-13T11:07:47;23.90;39.30
48515;DHT22;34309;47.260;2.796;2022-09-13T11:10:49;23.90;39.50
48515;DHT22;34309;47.260;2.796;2022-09-13T11:16:39;23.90;39.90
48515;DHT22;34309;47.260;2.796;2022-09-13T11:22:32;24.00;40.10
48515;DHT22;34309;47.260;2.796;2022-09-13T11:30:19;24.00;40.00
48515;DHT22;34309;47.260;2.796;2022-09-13T11:35:53;24.00;40.30
48515;DHT22;34309;47.260;2.796;2022-09-13T11:38:56;24.00;40.50
48515;DHT22;34309;47.260;2.796;2022-09-13T11:41:49;24.10;40.00
48515;DHT22;34309;47.260;2.796;2022-09-13T11:55:40;24.10;40.10
48515;DHT22;34309;47.260;2.796;2022-09-13T11:59:06;24.10;40.00
48515;DHT22;34309;47.260;2.796;2022-09-13T12:01:09;24.10;39.70
48515;DHT22;34309;47.260;2.796;2022-09-13T12:03:58;24.10;39.80
48515;DHT22;34309;47.260;2.796;2022-09-13T12:07:03;24.10;39.90
48515;DHT22;34309;47.260;2.796;2022-09-13T12:09:51;24.10;40.00
48515;DHT22;34309;47.260;2.796;2022-09-13T12:12:24;24.10;40.00
48515;DHT22;34309;47.260;2.796;2022-09-13T12:15:34;24.10;40.00
48515;DHT22;34309;47.260;2.796;2022-09-13T12:18:07;24.20;40.00
48515;DHT22;34309;47.260;2.796;2022-09-13T12:20:49;24.20;40.00
48515;DHT22;34309;47.260;2.796;2022-09-13T12:23:22;24.20;40.10
48515;DHT22;34309;47.260;2.796;2022-09-13T12:25:59;24.20;39.90
48515;DHT22;34309;47.260;2.796;2022-09-13T12:31:06;24.20;40.00
48515;DHT22;34309;47.260;2.796;2022-09-13T12:33:39;24.20;40.00
48515;DHT22;34309;47.260;2.796;2022-09-13T12:58:15;24.30;40.00
48515;DHT22;34309;47.260;2.796;2022-09-13T13:01:07;24.30;40.50
48515;DHT22;34309;47.260;2.796;2022-09-13T13:03:44;24.30;40.30
48515;DHT22;34309;47.260;2.796;2022-09-13T13:08:52;24.30;40.10
48515;DHT22;34309;47.260;2.796;2022-09-13T13:11:22;24.30;39.90
48515;DHT22;34309;47.260;2.796;2022-09-13T13:18:53;24.30;40.30
48515;DHT22;34309;47.260;2.796;2022-09-13T13:29:27;24.40;39.70
48515;DHT22;34309;47.260;2.796;2022-09-13T13:37:23;24.40;39.70
48515;DHT22;34309;47.260;2.796;2022-09-13T13:40:28;24.40;39.90
48515;DHT22;34309;47.260;2.796;2022-09-13T13:43:14;24.40;40.00
48515;DHT22;34309;47.260;2.796;2022-09-13T13:46:22;24.40;40.10
48515;DHT22;34309;47.260;2.796;2022-09-13T13:48:43;24.40;40.10
48515;DHT22;34309;47.260;2.796;2022-09-13T13:53:37;24.50;40.70
48515;DHT22;34309;47.260;2.796;2022-09-13T13:56:23;24.50;40.30
48515;DHT22;34309;47.260;2.796;2022-09-13T13:58:58;24.50;40.40
48515;DHT22;34309;47.260;2.796;2022-09-13T14:01:32;24.50;40.20
48515;DHT22;34309;47.260;2.796;2022-09-13T14:09:35;24.50;40.80
48515;DHT22;34309;47.260;2.796;2022-09-13T14:12:20;24.50;40.70
48515;DHT22;34309;47.260;2.796;2022-09-13T14:15:22;24.50;40.80
48515;DHT22;34309;47.260;2.796;2022-09-13T14:18:12;24.50;41.30
48515;DHT22;34309;47.260;2.796;2022-09-13T14:23:24;24.50;40.60
48515;DHT22;34309;47.260;2.796;2022-09-13T14:25:57;24.50;41.00
48515;DHT22;34309;47.260;2.796;2022-09-13T14:28:24;24.50;40.90
48515;DHT22;34309;47.260;2.796;2022-09-13T14:30:55;24.50;40.90
48515;DHT22;34309;47.260;2.796;2022-09-13T14:33:33;24.60;41.50
48515;DHT22;34309;47.260;2.796;2022-09-13T14:39:00;24.60;41.70
48515;DHT22;34309;47.260;2.796;2022-09-13T14:41:36;24.60;41.70
48515;DHT22;34309;47.260;2.796;2022-09-13T14:44:20;24.60;41.50
48515;DHT22;34309;47.260;2.796;2022-09-13T14:47:00;24.60;41.70
48515;DHT22;34309;47.260;2.796;2022-09-13T14:49:34;24.60;41.40
48515;DHT22;34309;47.260;2.796;2022-09-13T14:52:03;24.60;40.70
48515;DHT22;34309;47.260;2.796;2022-09-13T14:54:37;24.60;41.40
48515;DHT22;34309;47.260;2.796;2022-09-13T14:57:06;24.60;41.30
48515;DHT22;34309;47.260;2.796;2022-09-13T15:02:26;24.60;41.20
48515;DHT22;34309;47.260;2.796;2022-09-13T15:04:57;24.60;41.30
48515;DHT22;34309;47.260;2.796;2022-09-13T15:09:55;24.60;41.10
48515;DHT22;34309;47.260;2.796;2022-09-13T15:12:25;24.60;41.70
48515;DHT22;34309;47.260;2.796;2022-09-13T15:15:53;24.60;42.10
48515;DHT22;34309;47.260;2.796;2022-09-13T15:18:20;24.70;42.00
48515;DHT22;34309;47.260;2.796;2022-09-13T15:23:49;24.70;41.70
48515;DHT22;34309;47.260;2.796;2022-09-13T15:26:19;24.70;41.80
48515;DHT22;34309;47.260;2.796;2022-09-13T15:31:25;24.70;41.90
48515;DHT22;34309;47.260;2.796;2022-09-13T15:36:41;24.70;42.20
48515;DHT22;34309;47.260;2.796;2022-09-13T15:41:39;24.70;42.60
48515;DHT22;34309;47.260;2.796;2022-09-13T15:44:06;24.70;42.10
48515;DHT22;34309;47.260;2.796;2022-09-13T15:46:48;24.70;42.10
48515;DHT22;34309;47.260;2.796;2022-09-13T15:49:19;24.70;42.20
48515;DHT22;34309;47.260;2.796;2022-09-13T15:51:46;24.70;42.60
48515;DHT22;34309;47.260;2.796;2022-09-13T15:54:17;24.70;42.70
48515;DHT22;34309;47.260;2.796;2022-09-13T15:56:45;24.70;42.30
48515;DHT22;34309;47.260;2.796;2022-09-13T15:59:16;24.70;42.10
48515;DHT22;34309;47.260;2.796;2022-09-13T16:01:43;24.70;42.10
48515;DHT22;34309;47.260;2.796;2022-09-13T16:04:10;24.70;42.20
48515;DHT22;34309;47.260;2.796;2022-09-13T16:06:36;24.70;42.20
48515;DHT22;34309;47.260;2.796;2022-09-13T16:09:20;24.70;42.10
48515;DHT22;34309;47.260;2.796;2022-09-13T16:11:47;24.70;42.10
48515;DHT22;34309;47.260;2.796;2022-09-13T16:14:13;24.70;42.10
48515;DHT22;34309;47.260;2.796;2022-09-13T16:16:40;24.70;42.10
48515;DHT22;34309;47.260;2.796;2022-09-13T16:19:09;24.70;42.10
48515;DHT22;34309;47.260;2.796;2022-09-13T16:21:37;24.80;42.10
48515;DHT22;34309;47.260;2.796;2022-09-13T16:24:04;24.80;42.20
48515;DHT22;34309;47.260;2.796;2022-09-13T16:26:30;24.80;42.20
48515;DHT22;34309;47.260;2.796;2022-09-13T16:28:57;24.80;42.20
48515;DHT22;34309;47.260;2.796;2022-09-13T16:31:22;24.80;41.80
48515;DHT22;34309;47.260;2.796;2022-09-13T16:33:48;24.80;41.70
48515;DHT22;34309;47.260;2.796;2022-09-13T16:36:14;24.80;41.80
48515;DHT22;34309;47.260;2.796;2022-09-13T16:38:39;24.80;41.60
48515;DHT22;34309;47.260;2.796;2022-09-13T16:41:06;24.80;41.40
48515;DHT22;34309;47.260;2.796;2022-09-13T16:43:32;24.70;41.40
48515;DHT22;34309;47.260;2.796;2022-09-13T16:45:59;24.80;41.60
48515;DHT22;34309;47.260;2.796;2022-09-13T16:48:24;24.80;41.50
48515;DHT22;34309;47.260;2.796;2022-09-13T16:50:51;24.80;41.30
48515;DHT22;34309;47.260;2.796;2022-09-13T16:53:17;24.80;41.50
48515;DHT22;34309;47.260;2.796;2022-09-13T16:55:43;24.80;41.30
48515;DHT22;34309;47.260;2.796;2022-09-13T16:58:10;24.80;41.20
48515;DHT22;34309;47.260;2.796;2022-09-13T17:00:37;24.80;41.20
48515;DHT22;34309;47.260;2.796;2022-09-13T17:03:03;24.80;41.20
48515;DHT22;34309;47.260;2.796;2022-09-13T17:05:28;24.70;41.00
48515;DHT22;34309;47.260;2.796;2022-09-13T17:07:54;24.80;41.10
48515;DHT22;34309;47.260;2.796;2022-09-13T17:10:20;24.80;41.10
48515;DHT22;34309;47.260;2.796;2022-09-13T17:12:46;24.80;41.40
48515;DHT22;34309;47.260;2.796;2022-09-13T17:15:12;24.80;41.00
48515;DHT22;34309;47.260;2.796;2022-09-13T17:17:38;24.80;41.00
48515;DHT22;34309;47.260;2.796;2022-09-13T17:20:11;24.80;41.30
48515;DHT22;34309;47.260;2.796;2022-09-13T17:22:39;24.80;41.10
48515;DHT22;34309;47.260;2.796;2022-09-13T17:25:06;24.80;41.00
48515;DHT22;34309;47.260;2.796;2022-09-13T17:27:32;24.80;41.00
48515;DHT22;34309;47.260;2.796;2022-09-13T17:29:58;24.80;41.20
48515;DHT22;34309;47.260;2.796;2022-09-13T17:32:26;24.80;41.20
48515;DHT22;34309;47.260;2.796;2022-09-13T17:34:52;24.80;41.00
48515;DHT22;34309;47.260;2.796;2022-09-13T17:37:17;24.80;41.00
48515;DHT22;34309;47.260;2.796;2022-09-13T17:39:43;24.80;40.90
48515;DHT22;34309;47.260;2.796;2022-09-13T17:42:09;24.80;41.00
48515;DHT22;34309;47.260;2.796;2022-09-13T17:44:35;24.80;41.10
48515;DHT22;34309;47.260;2.796;2022-09-13T17:47:00;24.80;41.00
48515;DHT22;34309;47.260;2.796;2022-09-13T17:49:26;24.80;41.20
48515;DHT22;34309;47.260;2.796;2022-09-13T17:51:52;24.80;41.30
48515;DHT22;34309;47.260;2.796;2022-09-13T17:54:19;24.80;41.70
48515;DHT22;34309;47.260;2.796;2022-09-13T17:56:44;24.90;41.70
48515;DHT22;34309;47.260;2.796;2022-09-13T17:59:16;24.90;41.50
48515;DHT22;34309;47.260;2.796;2022-09-13T18:01:49;24.80;42.20
48515;DHT22;34309;47.260;2.796;2022-09-13T18:04:18;24.90;42.30
48515;DHT22;34309;47.260;2.796;2022-09-13T18:06:45;24.80;42.20
48515;DHT22;34309;47.260;2.796;2022-09-13T18:09:12;24.90;42.30
48515;DHT22;34309;47.260;2.796;2022-09-13T18:11:38;24.90;42.30
48515;DHT22;34309;47.260;2.796;2022-09-13T18:14:06;24.90;42.30
48515;DHT22;34309;47.260;2.796;2022-09-13T18:16:32;24.80;42.20
48515;DHT22;34309;47.260;2.796;2022-09-13T18:18:59;24.80;42.20
48515;DHT22;34309;47.260;2.796;2022-09-13T18:21:32;24.90;42.30
48515;DHT22;34309;47.260;2.796;2022-09-13T18:24:02;24.90;42.30
48515;DHT22;34309;47.260;2.796;2022-09-13T18:26:32;24.90;43.30
48515;DHT22;34309;47.260;2.796;2022-09-13T18:29:02;24.80;44.00
48515;DHT22;34309;47.260;2.796;2022-09-13T18:31:30;24.80;44.30
48515;DHT22;34309;47.260;2.796;2022-09-13T18:34:05;24.80;44.30
48515;DHT22;34309;47.260;2.796;2022-09-13T18:36:33;24.80;45.30
48515;DHT22;34309;47.260;2.796;2022-09-13T18:39:01;24.80;45.40
48515;DHT22;34309;47.260;2.796;2022-09-13T18:41:35;24.80;45.50
48515;DHT22;34309;47.260;2.796;2022-09-13T18:44:07;24.80;45.50
48515;DHT22;34309;47.260;2.796;2022-09-13T18:46:35;24.80;45.70
48515;DHT22;34309;47.260;2.796;2022-09-13T18:49:04;24.80;45.20
48515;DHT22;34309;47.260;2.796;2022-09-13T18:51:40;24.80;45.30
48515;DHT22;34309;47.260;2.796;2022-09-13T18:54:10;24.80;45.10
48515;DHT22;34309;47.260;2.796;2022-09-13T18:56:37;24.80;45.20
48515;DHT22;34309;47.260;2.796;2022-09-13T18:59:05;24.80;45.40
48515;DHT22;34309;47.260;2.796;2022-09-13T19:01:36;24.80;45.60
48515;DHT22;34309;47.260;2.796;2022-09-13T19:04:11;24.80;45.70
48515;DHT22;34309;47.260;2.796;2022-09-13T19:06:47;24.80;45.40
48515;DHT22;34309;47.260;2.796;2022-09-13T19:09:14;24.80;45.40
48515;DHT22;34309;47.260;2.796;2022-09-13T19:11:43;24.80;45.20
48515;DHT22;34309;47.260;2.796;2022-09-13T19:14:12;24.80;45.20
48515;DHT22;34309;47.260;2.796;2022-09-13T19:16:39;24.80;45.20
48515;DHT22;34309;47.260;2.796;2022-09-13T19:19:04;24.80;45.20